METAR Data
IDs: Format: Raw Decoded Include TAF

Data at: 0308 UTC 25 Jan 2020

PADK 250256Z AUTO 17014KT 10SM -RA SCT015 BKN022 OVC029 03/01 A2925 RMK AO2 SLP905 P0003 60012 T00330011 52001
PADK 250156Z AUTO 17011KT 7SM -RA BKN019 OVC024 03/02 A2925 RMK AO2 SLP905 P0004 T00330017
PADK 250056Z AUTO 18008KT 6SM -RA BR OVC017 03/01 A2925 RMK AO2 SLP904 P0005 T00280011
PADK 242356Z AUTO 16012KT 10SM -RA OVC017 03/02 A2925 RMK AO2 SLP904 P0002 60022 T00330017 10039 20028 53009
PADK 242256Z AUTO 21012KT 7SM -RA SCT014 BKN022 OVC030 03/02 A2924 RMK AO2 WSHFT 2205 SLP902 P0001 T00330017
PADK 242219Z AUTO 23013KT 8SM -RA BKN012 BKN023 OVC032 03/02 A2923 RMK AO2 WSHFT 2205 P0000
PADK 242156Z AUTO 18009KT 8SM -RA BKN016 BKN024 OVC030 03/01 A2921 RMK AO2 SLP893 P0004 T00280011
PADK 242056Z AUTO 15019G24KT 9SM -RA OVC016 03/01 A2922 RMK AO2 PK WND 17028/2003 SLP895 P0005 60015 T00280011 50002
PADK 241956Z AUTO 18024G32KT 6SM -RA BR BKN020 OVC028 03/01 A2922 RMK AO2 PK WND 17034/1926 SLP896 P0005 T00330011
PADK 241856Z AUTO 18022G30KT 6SM -RA BR OVC019 03/01 A2922 RMK AO2 PK WND 16030/1851 SLP895 P0005 T00280011
PADK 241756Z AUTO 17017KT 8SM -RA OVC019 03/01 A2922 RMK AO2 PK WND 17026/1702 SLP893 P0004 60039 T00280011 10033 20028 53008
PADK 241656Z AUTO 18023G29KT 6SM -RA BR OVC019 03/01 A2919 RMK AO2 PK WND 17034/1559 SLP886 P0006 T00330011
PADK 241556Z AUTO 17026G31KT 3SM -RA BR OVC016 03/01 A2918 RMK AO2 PK WND 16037/1512 SLP882 P0010 T00280011
PADK 241456Z AUTO 17026G37KT 3SM -RA BR OVC016 03/01 A2919 RMK AO2 PK WND 17037/1447 SLP885 P0008 60019 T00280011 50001
PADK 241356Z AUTO 17026G31KT 6SM -RA BR BKN020 OVC024 03/01 A2920 RMK AO2 PK WND 18033/1317 SLP887 P0006 T00280006
PADK 241256Z AUTO 17019G28KT 7SM -RA BKN018 OVC023 03/01 A2920 RMK AO2 PK WND 18033/1206 SLP887 P0005 T00330011
PADK 241156Z AUTO 17024G35KT 5SM -RA BR OVC015 03/01 A2919 RMK AO2 PK WND 19035/1153 SLP884 P0009 60046 70107 T00280011 10039 20028 51005
PADK 241056Z AUTO 17029G40KT 3SM -RA BR OVC017 03/01 A2918 RMK AO2 PK WND 17040/1053 SLP882 P0009 T00280011
PADK 240956Z AUTO 17022G27KT 5SM -RA BR OVC017 03/01 A2919 RMK AO2 PK WND 17037/0936 SLP883 P0007 T00280011 400390022
PADK 240856Z AUTO 17033G38KT 3SM -RA BR OVC019 03/01 A2917 RMK AO2 PK WND 17039/0830 SLP879 P0009 60021 T00280011 51009
PADK 240756Z AUTO 17026G35KT 3SM -RA BR OVC017 03/01 A2917 RMK AO2 PK WND 18035/0752 SLP878 P0007 T00280011
PADK 240656Z AUTO 17029G36KT 4SM -RA BR OVC020 03/01 A2916 RMK AO2 PK WND 17036/0655 SLP874 P0005 T00330011
PADK 240556Z AUTO 17024G35KT 5SM -RA BR BKN020 OVC026 03/02 A2915 RMK AO2 PK WND 17051/0518 SLP869 P0005 60035 T00330017 10033 20028 53006
PADK 240534Z AUTO 17028G39KT 4SM -RA BR BKN018 OVC027 03/02 A2914 RMK AO2 PK WND 17051/0518 P0004
PADK 240512Z AUTO 17036G51KT 2SM -RA BR OVC018 03/02 A2912 RMK AO2 PK WND 17051/0506 P0002
PADK 240456Z AUTO 17040G49KT 1 3/4SM -RA BR OVC018 03/01 A2912 RMK AO2 PK WND 17051/0444 SLP861 P0005 T00330011
PADK 240453Z AUTO 17039G51KT 1 3/4SM -RA BR OVC018 03/01 A2912 RMK AO2 PK WND 17051/0444 P0005
PADK 240446Z AUTO 18038G51KT 2SM -RA BR OVC018 03/01 A2912 RMK AO2 PK WND 17051/0444 P0004
PADK 240356Z AUTO 18033G50KT 1 1/4SM -RA BR OVC018 03/01 A2913 RMK AO2 PK WND 17050/0354 UPB19E27 SLP863 P0006 T00330011
PADK 240304Z AUTO 17034G46KT 1 1/2SM -RA BR OVC018 03/01 A2913 RMK AO2 PK WND 18046/0300 P0001
PADK 240256Z AUTO 18036G43KT 2SM -RA BR OVC018 03/01 A2913 RMK AO2 PK WND 17050/0210 RAE33B53UPB33E53 SLP865 P0007 60019 T00330011 57006
PADK 240156Z AUTO 17035G47KT 1 1/2SM -RA BR OVC018 03/01 A2914 RMK AO2 PK WND 18052/0100 SLP867 P0006 T00330011 $
PADK 240147Z AUTO 17033G43KT 2SM -RA BR OVC020 03/01 A2914 RMK AO2 PK WND 18052/0100 VIS 1 1/2V3 P0005 $
PADK 240056Z AUTO 18037G50KT 1 1/2SM -RA BR BKN020 BKN025 OVC029 03/01 A2915 RMK AO2 PK WND 18050/0049 VIS 1V3 SLP870 P0006 T00330011
PADK 240054Z AUTO 17032G50KT 1 1/2SM -RA BR BKN020 BKN025 OVC029 03/01 A2915 RMK AO2 PK WND 18050/0049 VIS 1V3 P0006
PADK 240039Z AUTO 17037G45KT 2SM -RA BR BKN018 OVC025 03/01 A2915 RMK AO2 PK WND 18045/0030 VIS 1 3/4V3 P0004
PADK 240005Z AUTO 17035G43KT 1 1/2SM -RA BR OVC018 03/01 A2916 RMK AO2 PK WND 17043/0003 P0001
PADK 232356Z AUTO 17035G43KT 2SM -RA BR BKN018 OVC023 03/01 A2916 RMK AO2 PK WND 18047/2344 VIS 1 1/4V2 1/2 SLP873 P0006 60025 T00330011 10033 20028 58005
PADK 232351Z AUTO 17035G47KT 1 3/4SM -RA BR BKN017 OVC023 03/01 A2916 RMK AO2 PK WND 18047/2344 VIS 1 1/4V2 1/2 P0005
PADK 232304Z AUTO 17036G45KT 2SM -RA BR OVC021 03/01 A2917 RMK AO2 PK WND 18044/2300 VIS 1 1/4V3 P0000
PADK 232253Z AUTO 17035G44KT 2SM -RA BR OVC021 03/01 A2917 RMK AO2 PK WND 17050/2211 P0004
PADK 232239Z AUTO 17034G46KT 1 3/4SM -RA BR BKN021 OVC026 03/01 A2918 RMK AO2 PK WND 17050/2211 VIS 1 1/4V2 1/2 P0003
PADK 232224Z AUTO 18037G44KT 2 1/2SM -RA BR OVC021 03/01 A2918 RMK AO2 PK WND 17050/2211 VIS 1 3/4V3 P0002
PADK 232217Z AUTO 18031G50KT 1 3/4SM -RA BR OVC021 03/01 A2919 RMK AO2 PK WND 17050/2211 VIS 1 1/4V3 P0002
PADK 232156Z AUTO 18032G47KT 2 1/2SM -RA BR OVC021 03/01 A2920 RMK AO2 PK WND 17050/2110 VIS 1 3/4V4 SLP886 P0005 T00330011
PADK 232148Z AUTO 17037G46KT 2SM -RA BR OVC021 03/01 A2919 RMK AO2 PK WND 17050/2110 P0004
PADK 232117Z AUTO 17035G50KT 1 3/4SM -RA BR BKN019 OVC025 03/01 A2920 RMK AO2 PK WND 17050/2110 VIS 1V2 1/2 P0001
PADK 232056Z AUTO 17036G47KT 2SM -RA BR OVC019 03/01 A2920 RMK AO2 PK WND 18049/2027 VIS 1 1/4V3 SLP889 P0005 60009 T00330011 58007
PADK 232024Z AUTO 17032G46KT 2SM -RA BR OVC017 03/01 A2922 RMK AO2 PK WND 17049/2005 P0002
PADK 232013Z AUTO 17038G49KT 1 3/4SM -RA BR OVC019 03/01 A2921 RMK AO2 PK WND 17049/2005 P0001
PADK 231956Z AUTO 17037G45KT 2 1/2SM -RA BR OVC021 03/01 A2921 RMK AO2 PK WND 17049/1918 SLP892 P0002 T00280006
PADK 231856Z AUTO 17037G45KT 3SM -RA BR OVC021 03/01 A2922 RMK AO2 PK WND 17056/1821 SLP895 P0002 T00280006
PADK 231756Z AUTO 17032G45KT 5SM -RA OVC023 03/00 A2922 RMK AO2 PK WND 16047/1724 SLP896 P0001 60001 T00280000 10039 20028 56027
PADK 231656Z AUTO 17030G42KT 6SM -RA BKN023 OVC029 03/00 A2924 RMK AO2 PK WND 16046/1620 SLP903 P0000 T00280000
PADK 231617Z AUTO 16025G38KT 7SM -RA BKN024 OVC030 03/00 A2926 RMK AO2 PK WND 16038/1609 P0000
PADK 231556Z AUTO 16028G39KT 7SM -RA SCT026 OVC032 03/M01 A2927 RMK AO2 PK WND 16047/1509 RAE02B48 SLP912 P0000 T00331006